createdAt,value
2023-03-23T15:59:14.112Z,3.10
2023-03-23T16:01:43.716Z,2.85
2023-03-23T16:04:15.227Z,2.90
2023-03-23T16:06:43.051Z,2.78
2023-03-23T16:09:21.962Z,3.05
2023-03-23T16:11:49.255Z,3.03
2023-03-23T16:14:16.572Z,3.22
2023-03-23T16:16:50.763Z,2.78
2023-03-23T16:19:21.692Z,3.20
2023-03-23T16:21:48.917Z,3.35
2023-03-23T16:24:16.282Z,3.33
2023-03-23T16:26:43.567Z,3.40
2023-03-23T16:29:28.309Z,3.88
2023-03-23T16:32:01.676Z,3.40
2023-03-23T16:34:33.092Z,3.60
2023-03-23T16:37:00.403Z,3.80
2023-03-23T16:39:28.246Z,3.33
2023-03-23T16:41:55.718Z,3.80
2023-03-23T16:44:23.068Z,3.67
2023-03-23T16:46:50.450Z,3.60
2023-03-23T16:49:17.718Z,3.60
2023-03-23T16:51:44.918Z,3.80
2023-03-23T16:54:12.153Z,3.40
2023-03-23T16:56:39.711Z,3.40
2023-03-23T16:59:07.195Z,3.08
2023-03-23T17:01:34.592Z,3.20
2023-03-23T17:04:01.918Z,3.40
2023-03-23T17:06:29.236Z,3.85
2023-03-23T17:08:56.531Z,3.10
2023-03-23T17:11:23.834Z,3.10
2023-03-23T17:13:51.089Z,2.90
2023-03-23T17:16:18.418Z,2.97
2023-03-23T17:18:45.844Z,2.78
2023-03-23T17:21:13.037Z,2.83
2023-03-23T17:23:40.449Z,2.95
2023-03-23T17:26:07.733Z,2.83
2023-03-23T17:28:34.997Z,3.08
2023-03-23T17:31:02.332Z,2.88
2023-03-23T17:33:29.634Z,3.20
2023-03-23T17:35:56.964Z,3.00
2023-03-23T17:38:24.325Z,2.75
2023-03-23T17:40:59.757Z,2.90
2023-03-23T17:43:27.335Z,2.85
2023-03-23T17:45:54.613Z,2.83
2023-03-23T17:48:23.394Z,3.33
2023-03-23T17:50:57.779Z,3.90
2023-03-23T17:53:27.230Z,3.47
2023-03-23T17:55:56.022Z,3.35
2023-03-23T17:58:25.664Z,3.40
2023-03-23T18:00:54.214Z,3.47
2023-03-23T18:03:22.460Z,4.10
2023-03-23T18:05:51.300Z,4.65
2023-03-23T18:08:19.236Z,3.55
2023-03-23T18:10:47.050Z,3.85
2023-03-23T18:13:14.348Z,4.13
2023-03-23T18:15:46.733Z,4.10
2023-03-23T18:18:14.528Z,3.28
2023-03-23T18:20:41.711Z,3.57
2023-03-23T18:23:09.050Z,4.28
2023-03-23T18:25:37.698Z,3.63
2023-03-23T18:28:06.310Z,3.15
2023-03-23T18:30:35.181Z,3.58
2023-03-23T18:33:02.476Z,3.35
2023-03-23T18:35:30.275Z,3.70
2023-03-23T18:37:57.720Z,3.80
2023-03-23T18:40:25.136Z,2.93
2023-03-23T18:42:52.484Z,3.13
2023-03-23T18:45:19.709Z,3.13
2023-03-23T18:47:47.091Z,3.13
2023-03-23T18:50:15.169Z,2.90
2023-03-23T18:52:42.499Z,2.92
2023-03-23T18:55:10.001Z,3.05
2023-03-23T18:57:39.924Z,3.20
2023-03-23T19:00:08.488Z,2.70
2023-03-23T19:02:36.399Z,2.88
2023-03-23T19:05:03.780Z,2.90
2023-03-23T19:07:31.560Z,2.80
2023-03-23T19:09:58.884Z,3.22
2023-03-23T19:12:26.400Z,2.90
2023-03-23T19:14:53.717Z,2.90
2023-03-23T19:17:21.171Z,2.72
2023-03-23T19:19:48.856Z,3.60
2023-03-23T19:22:16.161Z,3.30
2023-03-23T19:24:43.525Z,2.78
2023-03-23T19:27:11.215Z,2.53
2023-03-23T19:29:38.713Z,2.88
2023-03-23T19:32:06.624Z,3.28
2023-03-23T19:34:34.019Z,3.03
2023-03-23T19:37:06.000Z,3.20
2023-03-23T19:39:35.341Z,3.08
2023-03-23T19:42:04.376Z,2.90
2023-03-23T19:44:33.286Z,3.28
2023-03-23T19:47:01.159Z,2.90
2023-03-23T19:49:28.670Z,3.08
2023-03-23T19:52:06.369Z,3.37
2023-03-23T19:54:36.716Z,2.90
2023-03-23T19:57:04.213Z,3.40
2023-03-23T19:59:31.484Z,3.17
2023-03-23T20:01:58.715Z,2.90
2023-03-23T20:04:26.317Z,3.03
2023-03-23T20:06:57.155Z,3.00
2023-03-23T20:09:25.264Z,2.90
2023-03-23T20:14:21.036Z,3.30
2023-03-23T20:16:48.744Z,3.20
2023-03-23T20:19:16.500Z,3.25
2023-03-23T20:21:45.099Z,2.80
2023-03-23T20:24:12.291Z,2.95
2023-03-23T20:26:43.761Z,3.05
2023-03-23T20:29:11.104Z,2.97
2023-03-23T20:31:41.766Z,2.78
2023-03-23T20:34:13.052Z,2.70
2023-03-23T20:36:45.219Z,2.72
2023-03-23T20:39:19.141Z,3.03
2023-03-23T20:41:48.430Z,3.17
2023-03-23T20:44:16.042Z,2.85
2023-03-23T20:46:49.876Z,3.03
2023-03-23T20:49:19.733Z,3.10
2023-03-23T20:51:48.605Z,3.38
2023-03-23T20:54:19.832Z,2.92
2023-03-23T20:56:48.158Z,2.97
2023-03-23T21:01:43.924Z,3.35
2023-03-23T21:04:15.809Z,3.55
2023-03-23T21:06:45.575Z,3.28
2023-03-23T21:09:14.301Z,3.33
2023-03-23T21:11:42.491Z,3.50
2023-03-23T21:14:11.628Z,3.60
2023-03-23T21:16:39.597Z,3.97
2023-03-23T21:19:07.656Z,3.47
2023-03-23T21:21:35.456Z,3.65
2023-03-23T21:24:03.098Z,3.35
2023-03-23T21:26:30.937Z,3.40
2023-03-23T21:29:00.461Z,3.05
2023-03-23T21:31:30.890Z,3.65
2023-03-23T21:33:59.378Z,3.55
2023-03-23T21:38:56.655Z,3.60
2023-03-23T21:41:24.719Z,3.75
2023-03-23T21:43:52.013Z,3.53
2023-03-23T21:46:20.061Z,3.60
2023-03-23T21:48:51.438Z,3.70
2023-03-23T21:51:26.364Z,3.78
2023-03-23T21:53:55.702Z,3.30
2023-03-23T21:56:27.327Z,3.50
2023-03-23T21:58:56.380Z,4.15
2023-03-23T22:01:24.305Z,3.75
2023-03-23T22:03:52.016Z,3.92
2023-03-23T22:06:31.105Z,3.83
2023-03-23T22:11:28.651Z,4.15
2023-03-23T22:13:58.129Z,3.85
2023-03-23T22:16:26.470Z,4.45
2023-03-23T22:21:26.186Z,4.27
2023-03-23T22:23:57.628Z,3.95
2023-03-23T22:26:27.377Z,3.97
2023-03-23T22:28:55.519Z,3.60
2023-03-23T22:31:27.646Z,4.00
2023-03-23T22:33:57.075Z,4.38
2023-03-23T22:36:27.063Z,4.43
2023-03-23T22:38:55.817Z,3.90
2023-03-23T22:41:30.715Z,3.90
2023-03-23T22:43:58.368Z,4.10
2023-03-23T22:46:26.127Z,3.75
2023-03-23T22:48:54.200Z,4.25
2023-03-23T22:51:23.001Z,3.95
2023-03-23T22:53:50.669Z,3.75
2023-03-23T22:56:19.274Z,4.22
2023-03-23T22:58:46.816Z,4.30
2023-03-23T23:01:20.790Z,3.75
2023-03-23T23:03:49.119Z,4.13
2023-03-23T23:08:47.017Z,4.45
2023-03-23T23:11:17.814Z,4.20
2023-03-23T23:13:45.532Z,4.22
2023-03-23T23:16:14.342Z,4.22
2023-03-23T23:18:42.010Z,4.45
2023-03-23T23:21:14.341Z,3.95
2023-03-23T23:23:42.384Z,4.32
2023-03-23T23:26:10.212Z,4.13
2023-03-23T23:28:37.614Z,3.85
2023-03-23T23:31:06.535Z,3.75
2023-03-23T23:33:33.913Z,4.00
2023-03-23T23:36:01.913Z,4.60
2023-03-23T23:38:29.353Z,4.50
2023-03-23T23:40:56.701Z,3.92
2023-03-23T23:43:24.019Z,3.80
2023-03-23T23:45:51.704Z,3.80
2023-03-23T23:48:19.016Z,4.22
2023-03-23T23:50:46.521Z,4.00
2023-03-23T23:53:13.942Z,4.20
2023-03-23T23:55:41.295Z,4.78
2023-03-23T23:58:08.652Z,4.37
